Time;durP1;ratioP1;P1;durP2;ratioP2;P2;SDS_P1;SDS_P2;PMS_P1;PMS_P2;Temp;Humidity;BMP_temperature;BMP_pressure;BME280_temperature;BME280_humidity;BME280_pressure;Samples;Min_cycle;Max_cycle;Signal;HPM_P1;HPM_P2
2023/06/01 00:00:21;;;;;;;7.65;4.30;;;;;;;26.09;37.74;99860.47;4246671;33;34065;-68
2023/06/01 00:02:49;;;;;;;6.68;4.65;;;;;;;26.08;37.69;99853.34;4246645;33;34049;-69
2023/06/01 00:05:17;;;;;;;7.72;4.85;;;;;;;26.07;37.65;99850.88;4246323;33;33279;-69
2023/06/01 00:07:45;;;;;;;6.85;4.80;;;;;;;26.07;37.59;99853.59;4246631;33;34628;-69
2023/06/01 00:10:13;;;;;;;6.40;4.28;;;;;;;26.05;37.57;99856.56;4246634;33;35031;-69
2023/06/01 00:12:42;;;;;;;7.47;4.15;;;;;;;26.04;37.54;99854.09;4246339;33;34467;-69
2023/06/01 00:15:09;;;;;;;8.23;4.40;;;;;;;26.04;37.50;99854.09;4246775;33;33348;-69
2023/06/01 00:17:37;;;;;;;13.68;4.50;;;;;;;26.03;37.43;99842.31;4246442;33;34421;-68
2023/06/01 00:20:08;;;;;;;8.18;4.82;;;;;;;26.02;37.42;99845.28;4245191;33;33947;-69
2023/06/01 00:22:38;;;;;;;7.18;4.53;;;;;;;26.01;37.46;99840.87;4246499;33;34671;-69
2023/06/01 00:25:07;;;;;;;6.82;3.97;;;;;;;26.00;37.41;99840.06;4246412;33;33491;-69
2023/06/01 00:27:35;;;;;;;8.15;4.57;;;;;;;25.99;37.39;99838.41;4244806;33;34104;-70
2023/06/01 00:30:04;;;;;;;6.18;3.60;;;;;;;25.99;37.33;99838.41;4246520;33;34287;-68
2023/06/01 00:32:32;;;;;;;11.82;5.20;;;;;;;25.99;37.33;99843.03;4246291;33;34896;-68
2023/06/01 00:35:00;;;;;;;7.50;4.40;;;;;;;25.99;37.25;99837.56;4246377;33;34294;-69
2023/06/01 00:37:28;;;;;;;8.45;4.20;;;;;;;25.97;37.24;99836.97;4246446;33;33949;-69
2023/06/01 00:39:56;;;;;;;8.45;4.47;;;;;;;25.97;37.24;99839.69;4246256;33;34194;-69
2023/06/01 00:42:24;;;;;;;9.52;4.03;;;;;;;25.95;37.22;99838.06;4246357;33;34929;-69
2023/06/01 00:44:53;;;;;;;11.45;4.57;;;;;;;25.94;37.21;99843.78;4246312;33;34484;-69
2023/06/01 00:47:21;;;;;;;8.18;4.18;;;;;;;25.94;37.21;99841.03;4246131;33;33885;-69
2023/06/01 00:49:48;;;;;;;7.10;4.35;;;;;;;25.94;37.15;99841.87;4233617;33;34694;-69
2023/06/01 00:52:16;;;;;;;7.90;4.07;;;;;;;25.92;37.11;99841.25;4245156;33;33924;-69
2023/06/01 00:54:44;;;;;;;6.40;3.95;;;;;;;25.91;37.08;99836.03;4244951;33;33953;-69
2023/06/01 00:57:11;;;;;;;8.55;5.15;;;;;;;25.91;37.06;99842.34;4244915;33;33977;-69
2023/06/01 00:59:39;;;;;;;6.07;3.92;;;;;;;25.89;37.03;99840.94;4259629;33;34069;-69
2023/06/01 01:02:08;;;;;;;9.38;4.35;;;;;;;25.89;36.97;99833.56;4259109;33;33467;-69
2023/06/01 01:04:36;;;;;;;7.30;4.45;;;;;;;25.88;36.94;99828.31;4260426;33;33761;-68
2023/06/01 01:07:26;;;;;;;6.90;4.47;;;;;;;25.87;36.97;99835.69;4260419;33;34033;-70
2023/06/01 01:10:00;;;;;;;6.18;4.10;;;;;;;25.88;36.92;99826.44;4247501;33;34449;-69
2023/06/01 01:12:45;;;;;;;10.43;4.62;;;;;;;25.85;36.90;99826.09;4259287;33;34450;-68
2023/06/01 01:15:19;;;;;;;7.70;4.43;;;;;;;25.87;36.85;99829.41;4271123;33;33738;-69
2023/06/01 01:17:47;;;;;;;7.68;4.03;;;;;;;25.85;36.80;99828.81;4260233;33;34189;-69
2023/06/01 01:20:26;;;;;;;7.20;4.15;;;;;;;25.83;36.78;99826.31;4247488;33;33909;-68
2023/06/01 01:23:04;;;;;;;6.85;4.12;;;;;;;25.82;36.78;99827.38;4247446;33;34897;-69
2023/06/01 01:25:35;;;;;;;7.47;4.50;;;;;;;25.82;36.74;99819.19;4259101;33;33056;-69
2023/06/01 01:28:21;;;;;;;7.87;3.83;;;;;;;25.82;36.74;99826.56;4260558;33;34048;-69
2023/06/01 01:30:49;;;;;;;5.95;3.75;;;;;;;25.84;36.74;99825.25;4260415;33;33865;-69
2023/06/01 01:33:17;;;;;;;7.93;4.00;;;;;;;25.80;36.78;99821.34;4259312;33;33633;-69
2023/06/01 01:35:45;;;;;;;9.32;4.28;;;;;;;25.79;36.78;99822.44;4259178;33;34366;-70
2023/06/01 01:38:12;;;;;;;7.47;3.80;;;;;;;25.78;36.76;99826.22;4259060;33;33955;-69
2023/06/01 01:40:40;;;;;;;7.60;3.90;;;;;;;25.80;36.78;99820.53;4259874;33;33934;-69
2023/06/01 01:43:08;;;;;;;8.98;4.50;;;;;;;25.78;36.65;99822.66;4260220;33;33980;-70
2023/06/01 01:45:36;;;;;;;7.70;4.35;;;;;;;25.77;36.62;99826.47;4259029;33;33628;-69
2023/06/01 01:48:15;;;;;;;7.53;4.00;;;;;;;25.76;36.62;99830.28;4247279;33;34744;-70
2023/06/01 01:51:03;;;;;;;10.35;4.30;;;;;;;25.75;36.52;99826.69;4270632;33;33922;-68
2023/06/01 01:53:30;;;;;;;7.72;4.03;;;;;;;25.76;36.41;99819.34;4258769;33;35085;-69
2023/06/01 01:56:00;;;;;;;7.05;4.35;;;;;;;25.73;36.35;99817.87;4247224;33;34138;-69
2023/06/01 01:58:27;;;;;;;9.13;5.00;;;;;;;25.71;36.42;99817.28;4251475;33;34090;-69
2023/06/01 02:00:56;;;;;;;8.00;4.43;;;;;;;25.71;36.32;99814.56;4259051;33;34038;-69
2023/06/01 02:03:23;;;;;;;7.32;3.67;;;;;;;25.70;36.27;99815.63;4247217;33;34104;-69
2023/06/01 02:05:51;;;;;;;6.72;4.05;;;;;;;25.69;36.25;99820.28;4260340;33;34426;-69
2023/06/01 02:08:20;;;;;;;9.05;4.00;;;;;;;25.69;36.23;99813.97;4259805;33;34104;-69
2023/06/01 02:10:48;;;;;;;6.68;4.40;;;;;;;25.67;36.23;99808.75;4259935;33;33926;-69
2023/06/01 02:13:15;;;;;;;7.35;4.10;;;;;;;25.67;36.25;99807.91;4259926;33;34172;-69
2023/06/01 02:15:43;;;;;;;6.95;3.70;;;;;;;25.67;36.20;99810.66;4258585;33;34278;-69
2023/06/01 02:18:11;;;;;;;7.93;4.20;;;;;;;25.65;36.20;99812.81;4259962;33;33972;-69
2023/06/01 02:20:38;;;;;;;8.00;4.28;;;;;;;25.66;36.16;99812.56;4259886;33;33633;-68
2023/06/01 02:23:06;;;;;;;7.03;4.30;;;;;;;25.64;36.12;99803.75;4259983;33;34647;-69
2023/06/01 02:25:33;;;;;;;7.22;3.55;;;;;;;25.64;36.17;99803.75;4259919;33;33431;-69
2023/06/01 02:28:01;;;;;;;7.20;4.28;;;;;;;25.63;36.11;99796.63;4259798;33;33947;-69
2023/06/01 02:30:29;;;;;;;6.50;3.87;;;;;;;25.62;36.15;99800.44;4259743;33;33623;-69
2023/06/01 02:32:57;;;;;;;8.77;4.45;;;;;;;25.61;36.12;99798.78;4259736;33;34984;-69
2023/06/01 02:35:24;;;;;;;8.68;3.78;;;;;;;25.61;36.14;99801.53;4260022;33;34479;-69
2023/06/01 02:37:52;;;;;;;6.25;3.72;;;;;;;25.60;36.13;99799.88;4259905;33;33955;-69
2023/06/01 02:40:20;;;;;;;6.70;3.80;;;;;;;25.59;36.05;99798.19;4259751;33;33748;-69
2023/06/01 02:42:48;;;;;;;7.05;3.78;;;;;;;25.60;36.07;99796.28;4259649;33;35040;-69
2023/06/01 02:45:17;;;;;;;7.85;3.92;;;;;;;25.58;36.04;99799.25;4259704;33;33682;-69
2023/06/01 02:47:45;;;;;;;10.02;4.15;;;;;;;25.58;35.99;99793.78;4259592;33;33672;-69
2023/06/01 02:50:12;;;;;;;9.20;3.58;;;;;;;25.57;35.95;99794.87;4259964;33;34128;-70
2023/06/01 02:52:42;;;;;;;6.43;3.65;;;;;;;25.57;35.92;99785.84;4263890;33;34916;-69
2023/06/01 02:55:09;;;;;;;7.87;3.92;;;;;;;25.57;35.90;99794.87;4264521;33;33640;-70
2023/06/01 02:57:38;;;;;;;7.72;3.75;;;;;;;25.56;35.83;99801.41;4264248;33;33872;-69
2023/06/01 03:00:15;;;;;;;6.43;3.42;;;;;;;25.54;35.83;99787.16;4264014;33;33978;-70
2023/06/01 03:02:46;;;;;;;8.57;3.72;;;;;;;25.53;35.82;99793.69;4264359;33;34180;-69
2023/06/01 03:05:14;;;;;;;8.20;3.40;;;;;;;25.54;35.83;99800.81;4262715;33;34396;-69
2023/06/01 03:07:45;;;;;;;10.40;3.55;;;;;;;25.54;35.80;99799.97;4264344;33;33955;-69
2023/06/01 03:10:13;;;;;;;8.15;4.10;;;;;;;25.52;35.79;99800.22;4251258;33;34026;-69
2023/06/01 03:12:43;;;;;;;7.07;4.03;;;;;;;25.52;35.81;99802.13;4264062;33;34865;-69
2023/06/01 03:15:11;;;;;;;5.78;3.80;;;;;;;25.52;35.77;99800.22;4264185;33;34410;-68
2023/06/01 03:17:38;;;;;;;6.53;3.87;;;;;;;25.50;35.83;99796.88;4264158;33;33549;-69
2023/06/01 03:20:14;;;;;;;5.43;3.20;;;;;;;25.51;35.82;99808.66;4264040;33;33686;-69
2023/06/01 03:22:45;;;;;;;8.95;3.70;;;;;;;25.50;35.81;99798.78;4264017;33;33966;-69
2023/06/01 03:25:13;;;;;;;6.78;3.67;;;;;;;25.50;35.87;99799.62;4263598;33;34080;-69
2023/06/01 03:27:40;;;;;;;6.40;3.62;;;;;;;25.50;35.81;99798.78;4263738;33;34819;-68
2023/06/01 03:30:10;;;;;;;8.13;4.07;;;;;;;25.49;35.76;99800.69;4263757;33;34749;-65
2023/06/01 03:32:38;;;;;;;9.82;4.12;;;;;;;25.49;35.76;99802.59;4262349;33;35393;-68
2023/06/01 03:35:07;;;;;;;8.40;3.97;;;;;;;25.49;35.88;99799.88;4263589;33;33533;-67
2023/06/01 03:37:35;;;;;;;6.50;3.58;;;;;;;25.48;36.02;99796.31;4263621;33;34872;-69
2023/06/01 03:40:10;;;;;;;6.15;3.58;;;;;;;25.48;35.98;99792.75;4263285;33;33923;-69
2023/06/01 03:42:42;;;;;;;8.55;3.75;;;;;;;25.47;35.92;99794.66;4251574;33;34743;-69
2023/06/01 03:45:10;;;;;;;8.75;4.03;;;;;;;25.47;35.96;99791.94;4263495;33;34339;-68
2023/06/01 03:47:38;;;;;;;5.90;3.65;;;;;;;25.47;35.98;99791.94;4262270;33;34428;-68
2023/06/01 03:50:07;;;;;;;8.23;3.45;;;;;;;25.45;36.00;99794.87;4262422;33;33970;-68
2023/06/01 03:52:35;;;;;;;7.53;4.03;;;;;;;25.45;36.02;99791.31;4262575;33;33986;-68
2023/06/01 03:55:12;;;;;;;7.03;3.62;;;;;;;25.46;36.01;99793.00;4263436;33;33524;-70
2023/06/01 03:57:42;;;;;;;7.07;3.57;;;;;;;25.43;36.03;99782.53;4263378;33;33462;-69
2023/06/01 04:00:18;;;;;;;8.38;3.62;;;;;;;25.45;35.99;99783.12;4263588;33;33796;-68
2023/06/01 04:02:54;;;;;;;6.65;3.58;;;;;;;25.44;36.03;99784.19;4261774;33;34461;-70
2023/06/01 04:05:23;;;;;;;8.63;4.07;;;;;;;25.42;36.02;99792.66;4259843;33;34639;-68
2023/06/01 04:07:52;;;;;;;5.82;3.70;;;;;;;25.43;36.00;99785.28;4260692;33;33920;-69
2023/06/01 04:10:19;;;;;;;10.13;4.30;;;;;;;25.44;36.04;99781.47;4259501;33;34833;-69
2023/06/01 04:12:51;;;;;;;11.50;3.92;;;;;;;25.43;36.05;99785.28;4259373;33;34916;-68
2023/06/01 04:15:19;;;;;;;9.07;3.83;;;;;;;25.43;36.04;99790.75;4260873;33;33222;-68
2023/06/01 04:17:47;;;;;;;7.40;3.67;;;;;;;25.44;36.09;99781.47;4260630;33;34087;-68
2023/06/01 04:20:16;;;;;;;7.35;3.40;;;;;;;25.44;36.03;99790.50;4260557;33;34011;-68
2023/06/01 04:22:44;;;;;;;6.37;3.40;;;;;;;25.44;35.95;99792.41;4260483;33;34911;-69
2023/06/01 04:25:17;;;;;;;7.97;4.00;;;;;;;25.43;35.97;99790.75;4258827;33;33458;-69
2023/06/01 04:27:47;;;;;;;10.18;3.95;;;;;;;25.42;35.96;99795.37;4259765;33;34463;-68
2023/06/01 04:30:16;;;;;;;6.35;3.37;;;;;;;25.42;35.95;99789.91;4270310;33;34060;-68
2023/06/01 04:32:44;;;;;;;8.27;3.53;;;;;;;25.43;35.92;99788.84;4270233;33;33443;-68
2023/06/01 04:35:12;;;;;;;9.27;3.92;;;;;;;25.44;35.83;99789.66;4260068;33;34352;-69
2023/06/01 04:37:41;;;;;;;7.05;3.42;;;;;;;25.43;35.82;99796.19;4260227;33;33636;-68
2023/06/01 04:40:09;;;;;;;8.75;3.53;;;;;;;25.42;35.80;99795.37;4260719;33;35006;-69
2023/06/01 04:42:41;;;;;;;7.93;3.45;;;;;;;25.41;35.79;99801.91;4259323;33;34167;-68
2023/06/01 04:45:10;;;;;;;6.68;3.33;;;;;;;25.41;35.83;99801.91;4259284;33;33189;-68
2023/06/01 04:47:39;;;;;;;6.62;3.37;;;;;;;25.42;35.85;99797.28;4270350;33;33942;-68
2023/06/01 04:50:09;;;;;;;6.43;3.47;;;;;;;25.41;35.88;99795.59;4260766;33;34681;-68
2023/06/01 04:52:38;;;;;;;7.37;3.37;;;;;;;25.42;35.89;99797.28;4260238;33;33873;-69
2023/06/01 04:55:06;;;;;;;7.28;3.03;;;;;;;25.41;35.88;99799.19;4260572;33;34323;-69
2023/06/01 04:57:35;;;;;;;6.95;3.58;;;;;;;25.40;35.92;99799.41;4255469;33;34074;-68
2023/06/01 05:00:07;;;;;;;9.40;3.78;;;;;;;25.41;35.97;99803.78;4263306;33;34103;-68
2023/06/01 05:02:34;;;;;;;5.53;3.05;;;;;;;25.42;36.00;99802.75;4251670;33;34311;-68
2023/06/01 05:05:04;;;;;;;8.02;3.85;;;;;;;25.42;36.04;99800.00;4252488;33;33329;-68
2023/06/01 05:07:31;;;;;;;10.75;3.35;;;;;;;25.41;36.09;99803.78;4253603;33;34194;-68
2023/06/01 05:10:04;;;;;;;7.03;2.97;;;;;;;25.42;36.12;99805.47;4253107;33;34792;-68
2023/06/01 05:12:33;;;;;;;7.68;3.70;;;;;;;25.42;36.18;99800.00;4261075;33;32752;-68
2023/06/01 05:15:04;;;;;;;7.30;4.03;;;;;;;25.42;36.23;99800.84;4259084;33;34323;-68
2023/06/01 05:17:32;;;;;;;6.90;3.47;;;;;;;25.42;36.27;99803.56;4260489;33;33967;-69
2023/06/01 05:20:00;;;;;;;7.05;3.60;;;;;;;25.44;36.31;99812.34;4256872;33;33520;-68
2023/06/01 05:22:28;;;;;;;7.10;3.08;;;;;;;25.44;36.34;99811.53;4233739;33;34036;-68
2023/06/01 05:24:57;;;;;;;10.25;3.55;;;;;;;25.44;36.37;99812.34;4246127;33;33715;-69
2023/06/01 05:27:25;;;;;;;6.37;3.03;;;;;;;25.45;36.41;99814.00;4246278;33;35147;-68
2023/06/01 05:29:53;;;;;;;9.40;3.40;;;;;;;25.47;36.45;99811.03;4246091;33;34844;-69
2023/06/01 05:32:20;;;;;;;6.82;3.42;;;;;;;25.47;36.50;99811.03;4246234;33;34863;-68
2023/06/01 05:34:48;;;;;;;5.97;3.05;;;;;;;25.47;36.53;99808.31;4246280;33;33354;-68
2023/06/01 05:37:16;;;;;;;7.70;3.47;;;;;;;25.48;36.56;99809.16;4246296;33;33974;-68
2023/06/01 05:39:44;;;;;;;6.95;3.60;;;;;;;25.48;36.59;99803.69;4246331;33;33882;-68
2023/06/01 05:42:12;;;;;;;7.07;3.50;;;;;;;25.48;36.61;99807.25;4246141;33;34716;-68
2023/06/01 05:44:40;;;;;;;5.43;3.17;;;;;;;25.48;36.62;99801.78;4246335;33;34135;-68
2023/06/01 05:47:08;;;;;;;7.40;3.65;;;;;;;25.48;36.63;99804.50;4246206;33;33642;-68
2023/06/01 05:49:35;;;;;;;5.93;2.85;;;;;;;25.49;36.63;99814.34;4246167;33;35423;-69
2023/06/01 05:52:04;;;;;;;6.68;3.33;;;;;;;25.48;36.60;99809.97;4244921;33;34780;-68
2023/06/01 05:54:32;;;;;;;6.72;3.47;;;;;;;25.48;36.57;99807.25;4246064;33;34504;-69
2023/06/01 05:57:00;;;;;;;8.77;3.20;;;;;;;25.49;36.50;99806.16;4246115;33;34102;-68
2023/06/01 05:59:28;;;;;;;6.80;3.25;;;;;;;25.49;36.47;99808.06;4258447;33;33775;-68
2023/06/01 06:01:56;;;;;;;6.85;3.53;;;;;;;25.49;36.43;99810.78;4260169;33;34892;-67
2023/06/01 06:04:23;;;;;;;5.93;3.17;;;;;;;25.48;36.38;99804.50;4260094;33;33808;-67
2023/06/01 06:06:52;;;;;;;7.00;3.33;;;;;;;25.49;36.35;99800.69;4259993;33;33863;-67
2023/06/01 06:09:20;;;;;;;6.78;3.28;;;;;;;25.48;36.34;99800.94;4259724;33;33974;-67
2023/06/01 06:11:47;;;;;;;9.95;3.10;;;;;;;25.49;36.36;99810.78;4259885;33;34085;-67
2023/06/01 06:14:15;;;;;;;9.27;3.50;;;;;;;25.48;36.39;99804.50;4260008;33;33287;-67
2023/06/01 06:16:42;;;;;;;8.23;3.17;;;;;;;25.48;36.36;99801.78;4259770;33;34895;-67
2023/06/01 06:19:10;;;;;;;9.82;3.53;;;;;;;25.50;36.39;99809.72;4260148;33;34064;-67
2023/06/01 06:21:39;;;;;;;5.45;2.97;;;;;;;25.49;36.37;99800.69;4259920;33;34181;-67
2023/06/01 06:24:07;;;;;;;6.37;3.10;;;;;;;25.50;36.37;99805.09;4259783;33;34353;-67
2023/06/01 06:26:35;;;;;;;6.35;3.37;;;;;;;25.50;36.39;99801.53;4258761;33;35269;-67
2023/06/01 06:29:02;;;;;;;6.75;3.50;;;;;;;25.50;36.36;99807.81;4259862;33;34027;-67
2023/06/01 06:31:30;;;;;;;8.25;3.35;;;;;;;25.49;36.35;99810.78;4259608;33;34873;-67
2023/06/01 06:33:58;;;;;;;5.20;2.95;;;;;;;25.48;36.38;99812.72;4259801;33;34812;-67
2023/06/01 06:36:25;;;;;;;5.65;3.00;;;;;;;25.49;36.41;99803.44;4259766;33;33543;-67
2023/06/01 06:38:53;;;;;;;5.75;3.03;;;;;;;25.49;36.43;99803.44;4259531;33;34844;-66
2023/06/01 06:41:21;;;;;;;6.90;3.28;;;;;;;25.49;36.46;99808.91;4259851;33;34839;-67
2023/06/01 06:43:48;;;;;;;8.50;3.60;;;;;;;25.50;36.50;99807.00;4246957;33;34514;-67
2023/06/01 06:46:16;;;;;;;6.82;3.28;;;;;;;25.50;36.50;99807.81;4259592;33;33689;-67
2023/06/01 06:48:44;;;;;;;4.80;2.78;;;;;;;25.51;36.53;99800.44;4259625;33;34460;-67
2023/06/01 06:51:11;;;;;;;6.07;3.35;;;;;;;25.49;36.55;99803.44;4259556;33;34927;-69
2023/06/01 06:53:39;;;;;;;7.03;3.35;;;;;;;25.51;36.56;99803.19;4246462;33;33380;-69
2023/06/01 06:56:06;;;;;;;7.72;2.95;;;;;;;25.51;36.58;99803.19;4259557;33;33872;-69
2023/06/01 06:58:34;;;;;;;9.73;3.42;;;;;;;25.50;36.59;99799.62;4259609;33;33944;-68
2023/06/01 07:01:04;;;;;;;5.43;2.75;;;;;;;25.52;36.61;99799.41;4259342;33;34381;-68
2023/06/01 07:03:32;;;;;;;6.72;3.40;;;;;;;25.52;36.63;99802.97;4259464;33;34690;-68
2023/06/01 07:06:01;;;;;;;5.85;3.03;;;;;;;25.52;36.64;99802.97;4259469;33;33594;-67
2023/06/01 07:08:28;;;;;;;5.45;2.83;;;;;;;25.54;36.64;99795.34;4259323;33;33461;-67
2023/06/01 07:10:58;;;;;;;;;;;;;;;25.53;36.64;99801.88;4258746;33;33307;-67
2023/06/01 07:13:26;;;;;;;7.78;3.22;;;;;;;25.65;36.47;99804.59;4259351;33;32975;-67
2023/06/01 07:15:53;;;;;;;5.78;3.08;;;;;;;25.57;36.57;99797.59;4259397;33;34133;-67
2023/06/01 07:18:25;;;;;;;7.18;3.22;;;;;;;25.56;36.58;99808.78;4258097;33;34798;-67
2023/06/01 07:20:53;;;;;;;6.35;2.95;;;;;;;25.56;36.51;99806.88;4259013;33;34917;-67
2023/06/01 07:23:20;;;;;;;7.20;3.10;;;;;;;25.56;36.46;99812.34;4259279;33;33338;-67
2023/06/01 07:25:48;;;;;;;5.65;3.00;;;;;;;25.58;36.38;99806.62;4259163;33;33980;-67
2023/06/01 07:28:17;;;;;;;5.28;3.12;;;;;;;25.59;36.36;99806.38;4259033;33;33821;-67
2023/06/01 07:30:45;;;;;;;6.80;3.40;;;;;;;25.60;36.33;99809.94;4259077;33;34053;-67
2023/06/01 07:33:13;;;;;;;6.10;2.90;;;;;;;25.60;36.18;99805.31;4258922;33;33730;-68
2023/06/01 07:35:41;;;;;;;6.90;3.25;;;;;;;25.61;35.97;99804.25;4258906;33;33588;-67
2023/06/01 07:38:09;;;;;;;5.62;3.20;;;;;;;25.63;35.77;99801.28;4260268;33;34035;-67
2023/06/01 07:40:36;;;;;;;8.43;3.30;;;;;;;25.64;35.54;99798.28;4260806;33;35037;-67
2023/06/01 07:43:04;;;;;;;5.35;3.15;;;;;;;25.66;35.34;99798.06;4260800;33;34400;-68
2023/06/01 07:45:31;;;;;;;5.45;3.55;;;;;;;25.66;35.26;99796.16;4260983;33;34782;-67
2023/06/01 07:48:00;;;;;;;4.60;2.53;;;;;;;25.67;35.15;99794.25;4260853;33;33849;-68
2023/06/01 07:50:30;;;;;;;7.05;2.97;;;;;;;25.67;35.07;99788.78;4260641;33;34650;-68
2023/06/01 07:52:58;;;;;;;;;;;;;;;25.68;34.98;99794.00;4261129;33;33730;-67
2023/06/01 07:55:26;;;;;;;5.87;3.12;;;;;;;25.79;34.87;99788.81;4260619;33;33972;-70
2023/06/01 07:57:53;;;;;;;7.18;3.30;;;;;;;25.73;34.86;99798.75;4260528;33;34015;-71
2023/06/01 08:00:22;;;;;;;6.82;2.90;;;;;;;25.69;34.91;99801.16;4260770;33;34332;-69
2023/06/01 08:02:50;;;;;;;8.82;3.28;;;;;;;25.69;34.87;99792.94;4259795;33;33656;-69
2023/06/01 08:05:18;;;;;;;5.87;3.05;;;;;;;25.70;34.92;99789.13;4259503;33;34916;-71
2023/06/01 08:07:46;;;;;;;5.57;3.20;;;;;;;25.71;34.94;99787.22;4260762;33;34835;-69
2023/06/01 08:10:13;;;;;;;5.90;3.03;;;;;;;25.71;34.95;99798.16;4260792;33;34139;-71
2023/06/01 08:12:42;;;;;;;8.02;3.30;;;;;;;25.73;34.91;99790.53;4260596;33;33301;-71
2023/06/01 08:15:11;;;;;;;6.50;3.12;;;;;;;25.73;34.88;99789.72;4260736;33;34378;-69
2023/06/01 08:17:40;;;;;;;6.57;3.30;;;;;;;25.75;34.89;99790.31;4259507;33;33234;-69
2023/06/01 08:20:10;;;;;;;7.22;3.20;;;;;;;25.75;34.87;99785.69;4259097;33;34573;-68
2023/06/01 08:22:38;;;;;;;7.55;3.10;;;;;;;25.76;34.90;99787.37;4260789;33;33475;-69
2023/06/01 08:25:06;;;;;;;7.95;3.30;;;;;;;25.77;34.88;99788.19;4246187;33;33942;-70
2023/06/01 08:27:34;;;;;;;7.72;3.60;;;;;;;25.77;34.96;99783.56;4260025;33;33571;-68
2023/06/01 08:30:03;;;;;;;7.03;2.92;;;;;;;25.79;34.87;99783.34;4260420;33;32738;-71
2023/06/01 08:32:31;;;;;;;7.93;3.58;;;;;;;25.79;34.79;99789.63;4260450;33;33786;-69
2023/06/01 08:34:58;;;;;;;6.93;3.20;;;;;;;25.80;34.73;99782.25;4260498;33;34379;-69
2023/06/01 08:37:26;;;;;;;5.50;3.33;;;;;;;25.80;34.77;99785.81;4260647;33;34643;-71
2023/06/01 08:39:54;;;;;;;4.95;2.78;;;;;;;25.83;34.77;99784.47;4260353;33;33727;-70
2023/06/01 08:42:47;;;;;;;5.78;3.00;;;;;;;25.84;34.76;99786.16;4260543;33;34628;-69
2023/06/01 08:45:14;;;;;;;5.90;2.78;;;;;;;25.84;34.75;99786.16;4259250;33;34643;-70
2023/06/01 08:47:43;;;;;;;7.57;3.37;;;;;;;25.86;34.69;99781.28;4247719;33;33917;-70
2023/06/01 08:50:11;;;;;;;9.10;3.40;;;;;;;25.86;34.72;99781.28;4258537;33;33808;-67
2023/06/01 08:52:39;;;;;;;6.70;2.87;;;;;;;25.87;34.72;99775.56;4260386;33;33606;-68
2023/06/01 08:55:07;;;;;;;6.22;3.25;;;;;;;25.89;34.73;99783.53;4247562;33;34679;-71
2023/06/01 08:57:35;;;;;;;5.82;2.97;;;;;;;25.89;34.75;99773.41;4260368;33;34069;-67
2023/06/01 09:00:04;;;;;;;7.35;3.33;;;;;;;25.89;34.79;99773.41;4247287;33;33900;-70
2023/06/01 09:02:31;;;;;;;7.45;2.70;;;;;;;25.90;34.79;99774.25;4260670;33;33663;-68
2023/06/01 09:04:59;;;;;;;7.45;3.80;;;;;;;25.91;34.80;99776.72;4259276;33;33849;-68
2023/06/01 09:07:29;;;;;;;5.68;3.03;;;;;;;25.94;34.81;99775.44;4260354;33;33909;-68
2023/06/01 09:09:57;;;;;;;5.60;2.62;;;;;;;25.93;34.79;99774.59;4260474;33;34321;-69
2023/06/01 09:12:27;;;;;;;5.60;3.03;;;;;;;25.95;34.88;99766.16;4260303;33;34642;-65
2023/06/01 09:15:06;;;;;;;7.05;3.33;;;;;;;25.97;35.03;99765.88;4258440;33;34706;-66
2023/06/01 09:17:34;;;;;;;6.37;3.05;;;;;;;26.00;35.05;99762.69;4253082;33;34363;-60
2023/06/01 09:20:03;;;;;;;8.15;3.45;;;;;;;26.00;35.02;99757.22;4246295;33;34046;-63
2023/06/01 09:22:46;;;;;;;8.00;3.62;;;;;;;26.00;35.04;99758.03;4246165;33;34428;-64
2023/06/01 09:25:14;;;;;;;6.45;3.33;;;;;;;26.02;35.03;99758.63;4246008;33;33591;-66
2023/06/01 09:27:46;;;;;;;7.47;3.80;;;;;;;26.01;34.97;99756.94;4246118;33;34926;-61
2023/06/01 09:30:14;;;;;;;7.45;3.70;;;;;;;26.02;34.85;99753.16;4246330;33;34061;-67
2023/06/01 09:32:41;;;;;;;9.77;4.37;;;;;;;26.02;34.91;99753.16;4246011;33;34254;-65
2023/06/01 09:35:09;;;;;;;12.07;6.25;;;;;;;26.03;34.92;99756.72;4244830;33;33688;-64
2023/06/01 09:37:37;;;;;;;10.25;5.05;;;;;;;26.02;35.02;99755.91;4246043;33;34078;-67
2023/06/01 09:40:17;;;;;;;9.65;5.40;;;;;;;26.03;35.08;99756.72;4244799;33;34754;-66
2023/06/01 09:42:49;;;;;;;10.55;4.80;;;;;;;26.05;35.15;99757.31;4245999;33;33389;-66
2023/06/01 09:45:21;;;;;;;12.23;5.10;;;;;;;26.02;35.24;99753.16;4244760;33;34572;-66
2023/06/01 09:47:49;;;;;;;9.50;4.97;;;;;;;26.02;35.29;99761.38;4238328;33;33742;-66
2023/06/01 09:50:33;;;;;;;8.60;4.60;;;;;;;26.01;35.32;99759.69;4246896;33;34047;-66
2023/06/01 09:53:01;;;;;;;10.52;4.45;;;;;;;26.01;35.35;99756.94;4245991;33;32692;-67
2023/06/01 09:55:29;;;;;;;8.60;4.43;;;;;;;26.01;35.38;99758.88;4245933;33;33624;-64
2023/06/01 09:58:21;;;;;;;8.63;4.62;;;;;;;26.00;35.41;99749.84;4251096;33;33919;-64
2023/06/01 10:00:50;;;;;;;11.35;4.60;;;;;;;26.01;35.40;99746.03;4254479;33;34857;-66
2023/06/01 10:03:19;;;;;;;8.70;4.12;;;;;;;25.99;35.45;99750.91;4248342;33;33575;-64
2023/06/01 10:05:47;;;;;;;9.32;4.03;;;;;;;25.99;35.45;99748.19;4260123;33;33696;-66
2023/06/01 10:08:16;;;;;;;9.43;4.28;;;;;;;25.99;35.47;99750.91;4258655;33;34691;-65
2023/06/01 10:10:48;;;;;;;7.87;3.93;;;;;;;25.99;35.49;99747.34;4260061;33;34930;-66
2023/06/01 10:13:16;;;;;;;10.15;4.47;;;;;;;26.00;35.48;99749.84;4253458;33;33496;-64
2023/06/01 10:15:44;;;;;;;9.57;4.10;;;;;;;25.98;35.45;99743.78;4245622;33;33763;-64
2023/06/01 10:18:12;;;;;;;6.97;3.37;;;;;;;25.98;35.42;99738.31;4244647;33;33850;-65
2023/06/01 10:20:40;;;;;;;7.37;3.87;;;;;;;25.98;35.45;99737.50;4254560;33;34100;-64
2023/06/01 10:23:08;;;;;;;7.90;4.53;;;;;;;25.98;35.47;99737.50;4260069;33;33705;-64
2023/06/01 10:25:53;;;;;;;9.88;4.07;;;;;;;25.98;35.49;99730.12;4259844;33;34376;-63
2023/06/01 10:28:21;;;;;;;6.40;3.58;;;;;;;25.98;35.53;99721.91;4260024;33;33662;-62
2023/06/01 10:31:37;;;;;;;10.32;4.72;;;;;;;25.97;35.52;99717.50;4257319;33;35288;-63
2023/06/01 10:34:06;;;;;;;7.65;4.00;;;;;;;25.99;35.49;99729.03;4256276;33;33787;-64
2023/06/01 10:36:51;;;;;;;7.37;3.95;;;;;;;25.98;35.51;99721.91;4259804;33;34648;-64
2023/06/01 10:39:25;;;;;;;7.30;3.80;;;;;;;25.99;35.53;99714.56;4259782;33;34089;-66
2023/06/01 10:41:55;;;;;;;8.02;3.72;;;;;;;25.97;35.61;99713.94;4259590;33;35040;-63
2023/06/01 10:44:38;;;;;;;7.47;3.97;;;;;;;25.95;35.62;99711.47;4258707;33;34510;-66
2023/06/01 10:47:11;;;;;;;8.30;3.90;;;;;;;25.99;35.58;99711.81;4259607;33;33805;-64
2023/06/01 10:49:48;;;;;;;9.07;4.28;;;;;;;25.95;35.65;99712.28;4259712;33;34872;-66
2023/06/01 10:52:35;;;;;;;8.05;4.25;;;;;;;25.97;35.69;99705.75;4259567;33;34344;-64
2023/06/01 10:55:05;;;;;;;8.35;3.80;;;;;;;25.98;35.77;99708.25;4259741;33;33561;-63
2023/06/01 10:57:33;;;;;;;7.90;3.90;;;;;;;25.97;35.79;99701.09;4254420;33;33738;-65
2023/06/01 11:00:28;;;;;;;9.60;4.03;;;;;;;25.95;35.83;99697.78;4253880;33;33646;-64
2023/06/01 11:02:57;;;;;;;7.82;3.50;;;;;;;25.98;35.81;99704.69;4258023;33;34948;-66
2023/06/01 11:05:37;;;;;;;9.18;3.87;;;;;;;25.95;35.87;99698.63;4259567;33;33682;-66
2023/06/01 11:08:05;;;;;;;7.97;3.92;;;;;;;25.97;35.88;99687.44;4245846;33;34406;-66
2023/06/01 11:11:06;;;;;;;7.45;3.65;;;;;;;25.95;35.98;99693.16;4245796;33;34934;-64
2023/06/01 11:13:35;;;;;;;8.50;3.67;;;;;;;25.99;35.91;99695.41;4254403;33;34372;-63
2023/06/01 11:16:09;;;;;;;7.93;4.40;;;;;;;25.95;35.95;99687.69;4260722;33;34480;-66
2023/06/01 11:19:02;;;;;;;6.68;3.90;;;;;;;25.95;35.98;99690.44;4260745;33;34084;-63
2023/06/01 11:21:40;;;;;;;7.37;3.55;;;;;;;25.98;35.94;99682.81;4261073;33;33923;-64
2023/06/01 11:24:15;;;;;;;6.20;3.85;;;;;;;25.97;35.97;99676.50;4260801;33;34657;-65
2023/06/01 11:26:43;;;;;;;5.75;3.03;;;;;;;25.96;36.00;99677.56;4261009;33;34365;-67
2023/06/01 11:29:15;;;;;;;6.82;3.60;;;;;;;25.97;36.03;99671.03;4260976;33;34018;-66
2023/06/01 11:31:56;;;;;;;8.73;3.97;;;;;;;25.95;36.05;99660.34;4261006;33;34085;-63
2023/06/01 11:34:37;;;;;;;7.45;3.78;;;;;;;25.97;36.11;99665.56;4259786;33;34341;-67
2023/06/01 11:37:05;;;;;;;6.45;3.65;;;;;;;25.98;36.13;99656.31;4260884;33;34484;-65
2023/06/01 11:39:34;;;;;;;5.85;3.60;;;;;;;25.97;36.15;99662.81;4260880;33;33999;-66
2023/06/01 11:42:09;;;;;;;7.47;3.65;;;;;;;25.98;36.15;99652.75;4271207;33;33786;-67
2023/06/01 11:44:39;;;;;;;7.60;3.65;;;;;;;25.97;36.15;99645.59;4260863;33;34881;-65
2023/06/01 11:47:07;;;;;;;7.57;3.80;;;;;;;25.97;36.13;99645.59;4260626;33;33554;-63